CheckWX is a tool to help pilots better visualize weather data.  It is not intended as a substitute for an official pre-flight weather briefing.

22:21:55 UTC

KFLG TAF
Flagstaff Pulliam Airport
Flagstaff, Arizona, USA
KFLG 072339Z 0800/0824 24016G25KT P6SM SKC FM080300 23008KT P6SM SKC FM081600 22016G25KT P6SM SKC

Jul-8@
00:00 UTC

Jul-8 @ 00:00 UTC

Jul-8@
03:00 UTC

Jul-8 @ 03:00 UTC

TAF KFLG 072339Z 0800/0824 24016G25KT P6SM SKC

Expired

Wind
  • 240° at 16 KTS
  • {Gusting to 25 KTS
Cloud Levels
  • Clear skies

Jul-8@
03:00 UTC

Jul-8 @ 03:00 UTC

Jul-8@
16:00 UTC

Jul-8 @ 16:00 UTC

FM080300 23008KT P6SM SKC

Expired

Wind
  • 230° at 8 KTS
Cloud Levels
  • Clear skies

Jul-8@
16:00 UTC

Jul-8 @ 16:00 UTC

Jul-9@
00:00 UTC

Jul-9 @ 00:00 UTC

FM081600 22016G25KT P6SM SKC

From

From Standard forecast or significant change

Wind
  • 220° at 16 KTS
  • {Gusting to 25 KTS
Cloud Levels
  • Clear skies